createdAt,value
2018-07-11T00:01:20.132Z,70.30
2018-07-11T00:03:52.847Z,70.20
2018-07-11T00:06:24.064Z,70.20
2018-07-11T00:08:52.425Z,70.30
2018-07-11T00:11:20.953Z,70.30
2018-07-11T00:13:49.584Z,70.10
2018-07-11T00:16:18.302Z,70.00
2018-07-11T00:18:46.757Z,69.90
2018-07-11T00:21:15.111Z,70.00
2018-07-11T00:23:43.407Z,70.00
2018-07-11T00:26:12.111Z,70.10
2018-07-11T00:28:40.422Z,69.90
2018-07-11T00:31:08.757Z,70.00
2018-07-11T00:33:37.125Z,69.90
2018-07-11T00:36:05.492Z,69.80
2018-07-11T00:38:33.868Z,69.90
2018-07-11T00:41:02.839Z,70.00
2018-07-11T00:43:32.818Z,70.10
2018-07-11T00:46:01.948Z,70.50
2018-07-11T00:48:30.335Z,70.80
2018-07-11T00:50:58.996Z,70.90
2018-07-11T00:53:29.752Z,70.90
2018-07-11T00:55:58.868Z,70.80
2018-07-11T00:58:39.177Z,70.80
2018-07-11T01:01:10.904Z,70.60
2018-07-11T01:03:42.513Z,70.40
2018-07-11T01:06:10.893Z,70.30
2018-07-11T01:08:41.327Z,70.50
2018-07-11T01:11:16.969Z,70.40
2018-07-11T01:13:47.639Z,70.50
2018-07-11T01:16:17.502Z,70.10
2018-07-11T01:19:06.810Z,70.60
2018-07-11T01:21:35.787Z,70.60
2018-07-11T01:24:04.754Z,70.70
2018-07-11T01:26:34.360Z,70.80
2018-07-11T01:29:03.391Z,70.70
2018-07-11T01:31:31.664Z,70.50
2018-07-11T01:34:00.500Z,70.40
2018-07-11T01:36:29.295Z,70.10
2018-07-11T01:38:58.312Z,70.20
2018-07-11T01:41:26.621Z,70.30
2018-07-11T01:43:54.972Z,70.20
2018-07-11T01:46:23.427Z,69.90
2018-07-11T01:48:51.862Z,69.80
2018-07-11T01:51:21.387Z,69.70
2018-07-11T01:53:49.635Z,69.70
2018-07-11T01:56:17.948Z,70.20
2018-07-11T01:58:47.300Z,70.00
2018-07-11T02:01:16.696Z,70.00
2018-07-11T02:03:45.124Z,69.70
2018-07-11T02:06:13.490Z,69.70
2018-07-11T02:08:42.006Z,70.00
2018-07-11T02:13:38.364Z,69.90
2018-07-11T02:16:06.752Z,70.20
2018-07-11T02:18:35.866Z,70.10
2018-07-11T02:21:04.665Z,70.10
2018-07-11T02:23:34.678Z,70.10
2018-07-11T02:26:03.052Z,69.80
2018-07-11T02:28:31.593Z,70.00
2018-07-11T02:30:59.903Z,69.80
2018-07-11T02:33:28.235Z,70.40
2018-07-11T02:35:56.593Z,69.70
2018-07-11T02:38:24.860Z,69.60
2018-07-11T02:43:21.136Z,69.60
2018-07-11T02:45:49.438Z,69.60
2018-07-11T02:48:17.694Z,69.60
2018-07-11T02:50:46.500Z,69.20
2018-07-11T02:53:19.823Z,69.20
2018-07-11T02:55:50.219Z,69.30
2018-07-11T02:58:18.569Z,69.30
2018-07-11T03:00:49.185Z,69.30
2018-07-11T03:03:17.795Z,69.20
2018-07-11T03:05:46.176Z,68.90
2018-07-11T03:08:15.534Z,69.00
2018-07-11T03:10:43.831Z,69.00
2018-07-11T03:13:12.096Z,69.00
2018-07-11T03:15:40.381Z,68.90
2018-07-11T03:18:08.698Z,68.60
2018-07-11T03:23:05.136Z,68.40
2018-07-11T03:25:33.568Z,68.60
2018-07-11T03:28:01.842Z,68.80
2018-07-11T03:30:30.175Z,69.00
2018-07-11T03:32:58.497Z,68.80
2018-07-11T03:35:26.772Z,69.00
2018-07-11T03:37:56.228Z,69.10
2018-07-11T03:40:24.550Z,69.10
2018-07-11T03:45:20.807Z,68.70
2018-07-11T03:47:49.116Z,68.50
2018-07-11T03:50:17.348Z,68.60
2018-07-11T03:52:45.879Z,68.80
2018-07-11T03:55:14.214Z,68.70
2018-07-11T03:57:43.054Z,68.70
2018-07-11T04:00:11.400Z,68.70
2018-07-11T04:02:39.775Z,68.80
2018-07-11T04:05:08.867Z,68.70
2018-07-11T04:07:37.226Z,68.90
2018-07-11T04:10:05.723Z,68.80
2018-07-11T04:12:34.002Z,68.60
2018-07-11T04:15:02.323Z,68.80
2018-07-11T04:17:30.602Z,69.10
2018-07-11T04:19:58.859Z,68.70
2018-07-11T04:22:27.140Z,68.60
2018-07-11T04:24:55.523Z,68.80
2018-07-11T04:27:23.953Z,69.00
2018-07-11T04:29:52.209Z,69.10
2018-07-11T04:32:20.600Z,69.30
2018-07-11T04:34:49.071Z,69.30
2018-07-11T04:37:17.437Z,69.20
2018-07-11T04:39:45.637Z,69.20
2018-07-11T04:42:13.929Z,69.30
2018-07-11T04:44:42.321Z,69.10
2018-07-11T04:47:10.588Z,69.30
2018-07-11T04:52:06.980Z,69.30
2018-07-11T04:54:35.317Z,69.50
2018-07-11T04:57:03.618Z,69.30
2018-07-11T04:59:31.957Z,69.50
2018-07-11T05:02:00.222Z,69.50
2018-07-11T05:04:28.432Z,70.00
2018-07-11T05:06:56.741Z,70.00
2018-07-11T05:09:25.100Z,69.80
2018-07-11T05:11:53.612Z,69.40
2018-07-11T05:14:21.824Z,69.30
2018-07-11T05:16:50.113Z,69.60
2018-07-11T05:19:18.561Z,69.60
2018-07-11T05:21:46.880Z,69.60
2018-07-11T05:24:15.441Z,69.20
2018-07-11T05:26:43.736Z,69.10
2018-07-11T05:29:11.964Z,69.20
2018-07-11T05:31:40.247Z,69.10
2018-07-11T05:34:08.500Z,69.00
2018-07-11T05:36:36.720Z,68.90
2018-07-11T05:39:05.407Z,68.90
2018-07-11T05:41:34.051Z,68.60
2018-07-11T05:44:02.828Z,68.50
2018-07-11T05:46:31.089Z,68.90
2018-07-11T05:48:59.387Z,69.20
2018-07-11T05:51:27.638Z,69.00
2018-07-11T05:53:55.884Z,69.00
2018-07-11T05:56:24.135Z,69.00
2018-07-11T05:58:52.693Z,69.00
2018-07-11T06:01:20.945Z,68.90
2018-07-11T06:03:49.167Z,69.30
2018-07-11T06:06:17.485Z,69.00
2018-07-11T06:08:45.747Z,69.10
2018-07-11T06:11:19.771Z,68.90
2018-07-11T06:13:48.117Z,68.60
2018-07-11T06:16:16.444Z,68.40
2018-07-11T06:18:44.718Z,68.40
2018-07-11T06:21:13.067Z,68.10
2018-07-11T06:23:41.430Z,67.90
2018-07-11T06:26:09.693Z,68.00
2018-07-11T06:28:37.908Z,68.80
2018-07-11T06:31:06.156Z,68.20
2018-07-11T06:36:02.828Z,67.50
2018-07-11T06:38:31.117Z,67.40
2018-07-11T06:41:00.126Z,67.10
2018-07-11T06:43:28.468Z,67.10
2018-07-11T06:45:56.716Z,66.30
2018-07-11T06:48:25.089Z,66.00
2018-07-11T06:50:53.324Z,66.20
2018-07-11T06:53:21.633Z,65.70
2018-07-11T06:55:49.892Z,65.70
2018-07-11T06:58:18.173Z,65.70
2018-07-11T07:00:46.498Z,65.50
2018-07-11T07:03:14.800Z,65.70
2018-07-11T07:05:43.240Z,65.70
2018-07-11T07:08:11.654Z,66.00
2018-07-11T07:10:40.280Z,65.90
2018-07-11T07:13:09.344Z,65.60
2018-07-11T07:15:37.589Z,65.40
2018-07-11T07:18:05.889Z,65.80
2018-07-11T07:20:34.093Z,66.10
2018-07-11T07:23:02.361Z,65.90
2018-07-11T07:25:30.612Z,65.90
2018-07-11T07:27:58.867Z,65.50
2018-07-11T07:30:27.152Z,65.00
2018-07-11T07:32:55.428Z,64.90
2018-07-11T07:35:23.659Z,64.90
2018-07-11T07:37:52.165Z,64.60
2018-07-11T07:40:20.419Z,64.20
2018-07-11T07:42:48.702Z,62.80
2018-07-11T07:45:17.288Z,62.40
2018-07-11T07:47:46.564Z,62.70
2018-07-11T07:50:16.022Z,62.50
2018-07-11T07:52:44.305Z,62.50
2018-07-11T07:55:12.628Z,62.80
2018-07-11T08:00:09.499Z,61.40
2018-07-11T08:02:37.800Z,61.20
2018-07-11T08:05:07.592Z,61.30
2018-07-11T08:07:37.098Z,61.50
2018-07-11T08:10:06.361Z,61.90
2018-07-11T08:12:34.679Z,61.70
2018-07-11T08:15:03.198Z,62.20
2018-07-11T08:17:31.505Z,62.40
2018-07-11T08:19:59.752Z,62.60
2018-07-11T08:23:40.479Z,62.70
2018-07-11T08:26:20.484Z,62.70
2018-07-11T08:29:09.165Z,62.80
2018-07-11T08:31:48.781Z,62.80
2018-07-11T08:35:26.473Z,63.10
2018-07-11T08:38:06.072Z,63.40
2018-07-11T08:40:52.327Z,63.60
2018-07-11T08:43:29.988Z,63.90
2018-07-11T08:46:10.039Z,64.40
2018-07-11T08:48:49.984Z,64.40
2018-07-11T08:54:33.385Z,64.60
2018-07-11T08:57:12.793Z,64.30
2018-07-11T08:59:54.920Z,64.60
2018-07-11T09:03:37.137Z,64.90
2018-07-11T09:06:18.300Z,64.70
2018-07-11T09:09:02.539Z,65.20
2018-07-11T09:11:42.244Z,65.50
2018-07-11T09:15:26.371Z,65.80
2018-07-11T09:18:42.231Z,64.80
2018-07-11T09:23:27.835Z,64.80
2018-07-11T09:25:56.080Z,64.10
2018-07-11T09:28:24.424Z,64.00
2018-07-11T09:30:52.783Z,63.20
2018-07-11T09:33:21.098Z,63.30
2018-07-11T09:35:49.440Z,63.30
2018-07-11T09:38:17.740Z,63.20
2018-07-11T09:43:14.068Z,62.80
2018-07-11T09:45:42.598Z,62.80
2018-07-11T09:48:10.955Z,62.40
2018-07-11T09:50:39.559Z,61.50
2018-07-11T09:53:08.158Z,61.20
2018-07-11T09:55:37.160Z,60.20
2018-07-11T09:58:05.651Z,59.20
2018-07-11T10:00:40.471Z,59.30
2018-07-11T10:03:08.758Z,57.90
2018-07-11T10:05:37.093Z,57.40
2018-07-11T10:08:07.683Z,56.80
2018-07-11T10:10:36.020Z,55.80
2018-07-11T10:13:04.442Z,55.60
2018-07-11T10:15:32.822Z,54.90
2018-07-11T10:18:01.082Z,53.40
2018-07-11T10:22:57.392Z,55.10
2018-07-11T10:25:25.839Z,54.90
2018-07-11T10:28:05.700Z,55.20
2018-07-11T10:30:34.068Z,56.00
2018-07-11T10:33:02.326Z,55.50
2018-07-11T10:35:30.801Z,56.00
2018-07-11T10:37:59.049Z,55.20
2018-07-11T10:40:27.306Z,55.60
2018-07-11T10:42:55.578Z,55.80
2018-07-11T10:45:23.807Z,55.90
2018-07-11T10:47:52.097Z,55.30
2018-07-11T10:50:20.444Z,55.70
2018-07-11T10:52:48.695Z,55.70
2018-07-11T10:55:17.116Z,55.40
2018-07-11T10:57:46.375Z,55.10
2018-07-11T11:00:35.966Z,54.50
2018-07-11T11:02:43.856Z,54.80
2018-07-11T11:05:12.239Z,53.60
2018-07-11T11:07:40.584Z,54.30
2018-07-11T11:10:08.881Z,54.10
2018-07-11T11:12:37.284Z,54.60
2018-07-11T11:15:05.618Z,54.90
2018-07-11T11:17:33.903Z,55.40
2018-07-11T11:20:02.252Z,55.40
2018-07-11T11:22:30.579Z,55.10
2018-07-11T11:24:59.127Z,55.00
2018-07-11T11:27:27.482Z,55.40
2018-07-11T11:29:55.714Z,55.30
2018-07-11T11:32:24.060Z,55.80
2018-07-11T11:34:52.471Z,55.70
2018-07-11T11:37:21.131Z,55.20
2018-07-11T11:39:50.189Z,55.40
2018-07-11T11:42:18.636Z,55.80
2018-07-11T11:44:46.820Z,54.80
2018-07-11T11:47:15.197Z,54.40
2018-07-11T11:49:43.605Z,54.50
2018-07-11T11:52:12.438Z,54.80
2018-07-11T11:54:40.727Z,54.90
2018-07-11T11:57:09.081Z,54.10
2018-07-11T11:59:37.367Z,54.10
2018-07-11T12:02:05.784Z,54.20
2018-07-11T12:04:34.032Z,54.40
2018-07-11T12:07:02.342Z,54.30
2018-07-11T12:09:30.682Z,54.60
2018-07-11T12:12:01.568Z,54.20
2018-07-11T12:14:30.104Z,54.30
2018-07-11T12:16:58.408Z,54.30
2018-07-11T12:21:55.408Z,53.90
2018-07-11T12:24:24.092Z,54.30
2018-07-11T12:26:52.499Z,53.00
2018-07-11T12:29:20.798Z,53.70
2018-07-11T12:31:49.071Z,53.60
2018-07-11T12:34:17.348Z,53.70
2018-07-11T12:36:45.669Z,53.50
2018-07-11T12:39:13.980Z,53.80
2018-07-11T12:41:42.301Z,53.80
2018-07-11T12:44:10.622Z,53.70
2018-07-11T12:46:38.946Z,54.30
2018-07-11T12:49:07.554Z,53.80
2018-07-11T12:51:35.883Z,54.10
2018-07-11T12:54:04.822Z,54.40
2018-07-11T12:56:33.226Z,54.50
2018-07-11T12:59:01.522Z,54.50
2018-07-11T13:01:30.069Z,54.30
2018-07-11T13:03:59.050Z,54.00
2018-07-11T13:06:28.878Z,53.60
2018-07-11T13:08:57.450Z,53.40
2018-07-11T13:11:25.795Z,53.50
2018-07-11T13:13:54.229Z,52.80
2018-07-11T13:16:22.663Z,52.30
2018-07-11T13:18:50.856Z,52.60
2018-07-11T13:21:19.101Z,52.60
2018-07-11T13:23:47.412Z,52.40
2018-07-11T13:26:15.671Z,52.80
2018-07-11T13:28:44.077Z,53.60
2018-07-11T13:31:12.771Z,53.50
2018-07-11T13:33:41.299Z,53.60
2018-07-11T13:36:09.529Z,53.70
2018-07-11T13:38:37.790Z,53.80
2018-07-11T13:41:06.771Z,54.00
2018-07-11T13:43:35.086Z,53.80
2018-07-11T13:46:03.425Z,53.90
2018-07-11T13:48:31.802Z,54.10
2018-07-11T13:51:00.108Z,54.30
2018-07-11T13:53:28.439Z,54.80
2018-07-11T13:55:56.715Z,55.40
2018-07-11T13:58:25.071Z,55.90
2018-07-11T14:00:53.336Z,56.30
2018-07-11T14:03:21.609Z,56.80
2018-07-11T14:05:49.948Z,57.50
2018-07-11T14:08:18.187Z,58.80
2018-07-11T14:10:46.484Z,59.10
2018-07-11T14:13:14.840Z,58.90
2018-07-11T14:15:43.119Z,59.20
2018-07-11T14:18:11.505Z,59.40
2018-07-11T14:20:39.796Z,59.10
2018-07-11T14:23:09.014Z,59.30
2018-07-11T14:25:38.361Z,59.20
2018-07-11T14:28:06.597Z,59.30
2018-07-11T14:30:37.101Z,58.90
2018-07-11T14:33:07.283Z,59.00
2018-07-11T14:35:36.072Z,59.00
2018-07-11T14:38:04.377Z,58.90
2018-07-11T14:40:32.671Z,58.90
2018-07-11T14:43:00.943Z,59.20
2018-07-11T14:45:33.520Z,59.60
2018-07-11T14:48:08.351Z,60.20
2018-07-11T14:50:36.684Z,60.40
2018-07-11T14:53:05.567Z,59.40
2018-07-11T14:55:33.932Z,59.50
2018-07-11T14:58:02.200Z,59.10
2018-07-11T15:00:30.534Z,58.80
2018-07-11T15:02:58.923Z,58.70
2018-07-11T15:05:27.362Z,58.40
2018-07-11T15:07:55.904Z,57.90
2018-07-11T15:10:24.544Z,57.50
2018-07-11T15:12:52.832Z,57.50
2018-07-11T15:15:21.156Z,57.70
2018-07-11T15:17:49.517Z,57.60
2018-07-11T15:20:17.853Z,57.20
2018-07-11T15:22:46.281Z,57.00
2018-07-11T15:25:14.587Z,55.90
2018-07-11T15:27:42.864Z,55.80
2018-07-11T15:30:11.149Z,56.10
2018-07-11T15:32:39.611Z,55.30
2018-07-11T15:35:08.116Z,55.70
2018-07-11T15:37:36.473Z,56.00
2018-07-11T15:40:05.900Z,56.10
2018-07-11T15:42:35.709Z,55.60
2018-07-11T15:45:04.274Z,55.30
2018-07-11T15:47:32.740Z,55.30
2018-07-11T15:50:01.973Z,55.20
2018-07-11T15:52:32.364Z,55.90
2018-07-11T15:55:00.708Z,55.60
2018-07-11T15:57:34.173Z,54.80
2018-07-11T16:00:07.306Z,54.70
2018-07-11T16:02:42.108Z,54.90
2018-07-11T16:05:12.895Z,54.70
2018-07-11T16:07:44.666Z,53.80
2018-07-11T16:10:13.580Z,54.10
2018-07-11T16:12:44.670Z,54.50
2018-07-11T16:15:13.459Z,55.10
2018-07-11T16:17:41.746Z,55.20
2018-07-11T16:20:10.069Z,55.40
2018-07-11T16:22:38.449Z,56.00
2018-07-11T16:25:06.960Z,55.90
2018-07-11T16:27:35.374Z,56.40
2018-07-11T16:30:04.464Z,57.60
2018-07-11T16:32:32.807Z,58.70
2018-07-11T16:35:01.054Z,58.60
2018-07-11T16:37:29.320Z,58.50
2018-07-11T16:39:57.702Z,57.70
2018-07-11T16:42:26.076Z,57.90
2018-07-11T16:44:54.424Z,57.90
2018-07-11T16:47:22.723Z,57.60
2018-07-11T16:49:51.119Z,57.40
2018-07-11T16:52:19.467Z,57.40
2018-07-11T16:54:47.837Z,56.90
2018-07-11T16:57:23.502Z,57.10
2018-07-11T16:59:57.283Z,56.70
2018-07-11T17:02:26.758Z,56.80
2018-07-11T17:04:58.626Z,56.90
2018-07-11T17:07:26.961Z,56.70
2018-07-11T17:09:56.505Z,56.40
2018-07-11T17:12:26.089Z,56.70
2018-07-11T17:14:58.382Z,56.60
2018-07-11T17:17:35.845Z,55.80
2018-07-11T17:20:06.709Z,56.10
2018-07-11T17:23:07.364Z,57.70
2018-07-11T17:25:43.251Z,57.80
2018-07-11T17:28:11.768Z,57.70
2018-07-11T17:30:42.224Z,57.30
2018-07-11T17:33:11.632Z,57.00
2018-07-11T17:35:49.316Z,57.00
2018-07-11T17:38:21.585Z,56.60
2018-07-11T17:40:50.009Z,56.40
2018-07-11T17:43:19.526Z,56.30
2018-07-11T17:45:51.190Z,55.70
2018-07-11T17:48:35.852Z,55.60
2018-07-11T17:51:08.711Z,56.70
2018-07-11T17:53:42.388Z,56.40
2018-07-11T17:56:13.168Z,56.20
2018-07-11T17:59:00.336Z,56.00
2018-07-11T18:01:40.789Z,56.30
2018-07-11T18:04:15.711Z,55.90
2018-07-11T18:06:54.155Z,56.00
2018-07-11T18:09:23.964Z,56.00
2018-07-11T18:11:59.456Z,56.10
2018-07-11T18:14:43.923Z,55.70
2018-07-11T18:18:24.607Z,55.70
2018-07-11T18:23:07.949Z,55.70
2018-07-11T18:25:48.217Z,55.50
2018-07-11T18:30:34.540Z,56.30
2018-07-11T18:33:08.784Z,56.80
2018-07-11T18:35:54.127Z,56.80
2018-07-11T18:39:28.475Z,56.70
2018-07-11T18:42:07.528Z,56.90
2018-07-11T18:44:44.980Z,56.40
2018-07-11T18:48:24.292Z,56.40
2018-07-11T18:51:13.348Z,56.50
2018-07-11T18:54:20.238Z,56.90
2018-07-11T18:57:01.012Z,57.40
2018-07-11T18:59:45.331Z,56.90
2018-07-11T19:03:26.572Z,57.10
2018-07-11T19:06:06.320Z,57.10
2018-07-11T19:08:49.882Z,57.50
2018-07-11T19:11:27.544Z,57.60
2018-07-11T19:14:11.400Z,57.70
2018-07-11T19:16:48.648Z,58.30
2018-07-11T19:19:26.191Z,59.00
2018-07-11T19:21:56.693Z,58.60
2018-07-11T19:24:39.561Z,58.30
2018-07-11T19:27:16.656Z,58.60
2018-07-11T19:30:11.637Z,58.70
2018-07-11T19:32:51.678Z,58.80
2018-07-11T19:36:13.135Z,58.20
2018-07-11T19:38:50.235Z,58.50
2018-07-11T19:41:22.169Z,58.10
2018-07-11T19:43:57.213Z,58.30
2018-07-11T19:46:31.923Z,58.70
2018-07-11T19:49:18.756Z,58.60
2018-07-11T19:52:00.708Z,58.70
2018-07-11T19:54:36.659Z,58.60
2018-07-11T19:57:05.018Z,58.60
2018-07-11T19:59:33.347Z,58.80
2018-07-11T20:02:01.709Z,58.80
2018-07-11T20:04:30.094Z,58.70
2018-07-11T20:06:58.451Z,58.80
2018-07-11T20:09:26.675Z,59.90
2018-07-11T20:11:55.161Z,60.10
2018-07-11T20:14:23.612Z,60.90
2018-07-11T20:16:52.280Z,61.50
2018-07-11T20:19:20.877Z,61.60
2018-07-11T20:21:49.146Z,61.70
2018-07-11T20:24:17.489Z,61.70
2018-07-11T20:26:45.882Z,62.00
2018-07-11T20:29:14.292Z,62.00
2018-07-11T20:31:43.343Z,62.60
2018-07-11T20:34:11.610Z,63.00
2018-07-11T20:36:40.008Z,63.50
2018-07-11T20:39:08.370Z,63.80
2018-07-11T20:41:36.705Z,63.80
2018-07-11T20:44:05.023Z,63.90
2018-07-11T20:46:33.747Z,64.20
2018-07-11T20:49:06.943Z,64.10
2018-07-11T20:51:35.997Z,64.30
2018-07-11T20:54:04.401Z,64.30
2018-07-11T20:56:32.762Z,64.30
2018-07-11T20:59:12.539Z,64.50
2018-07-11T21:01:52.330Z,64.50
2018-07-11T21:04:30.119Z,64.60
2018-07-11T21:07:39.844Z,64.90
2018-07-11T21:10:22.476Z,65.50
2018-07-11T21:14:06.371Z,65.80
2018-07-11T21:17:43.651Z,66.40
2018-07-11T21:20:11.994Z,67.00
2018-07-11T21:22:40.728Z,67.70
2018-07-11T21:25:09.001Z,67.80
2018-07-11T21:27:37.242Z,68.00
2018-07-11T21:30:05.562Z,67.90
2018-07-11T21:32:34.084Z,68.20
2018-07-11T21:35:02.412Z,68.20
2018-07-11T21:37:30.748Z,68.20
2018-07-11T21:39:59.147Z,68.10
2018-07-11T21:42:27.476Z,68.30
2018-07-11T21:44:55.751Z,68.10
2018-07-11T21:47:24.220Z,68.20
2018-07-11T21:49:52.564Z,68.40
2018-07-11T21:52:20.832Z,68.40
2018-07-11T21:54:49.081Z,68.30
2018-07-11T21:57:17.321Z,68.50
2018-07-11T21:59:45.714Z,68.90
2018-07-11T22:02:14.002Z,68.70
2018-07-11T22:04:42.251Z,68.90
2018-07-11T22:07:10.543Z,69.20
2018-07-11T22:09:38.826Z,69.20
2018-07-11T22:12:07.151Z,69.30
2018-07-11T22:14:35.401Z,69.20
2018-07-11T22:17:15.198Z,69.20
2018-07-11T22:19:43.130Z,69.10
2018-07-11T22:22:10.420Z,69.00
2018-07-11T22:27:05.271Z,69.00
2018-07-11T22:29:32.552Z,68.80
2018-07-11T22:31:59.815Z,68.60
2018-07-11T22:34:27.121Z,68.60
2018-07-11T22:36:54.604Z,68.90
2018-07-11T22:39:21.848Z,69.20
2018-07-11T22:41:49.111Z,69.10
2018-07-11T22:44:16.336Z,69.30
2018-07-11T22:46:43.627Z,69.30
2018-07-11T22:49:10.867Z,69.30
2018-07-11T22:51:38.103Z,69.30
2018-07-11T22:56:32.879Z,69.20
2018-07-11T22:59:00.196Z,69.50
2018-07-11T23:01:28.463Z,69.40
2018-07-11T23:06:34.968Z,69.70
2018-07-11T23:09:02.254Z,69.70
2018-07-11T23:11:29.824Z,69.50
2018-07-11T23:13:57.045Z,69.50
2018-07-11T23:16:24.330Z,69.50
2018-07-11T23:18:51.592Z,69.60
2018-07-11T23:21:18.882Z,70.00
2018-07-11T23:23:46.307Z,70.20
2018-07-11T23:26:13.576Z,70.20
2018-07-11T23:28:40.833Z,70.20
2018-07-11T23:31:08.038Z,70.20
2018-07-11T23:33:35.321Z,70.30
2018-07-11T23:36:02.596Z,70.10
2018-07-11T23:38:29.859Z,70.00
2018-07-11T23:40:57.099Z,70.20
2018-07-11T23:43:24.309Z,70.20
2018-07-11T23:45:51.591Z,70.10
2018-07-11T23:48:18.961Z,69.90
2018-07-11T23:50:46.207Z,70.10
2018-07-11T23:55:41.004Z,70.30
2018-07-11T23:58:08.415Z,70.20
